createdAt,value
2019-03-23T00:00:37.390Z,27.00
2019-03-23T00:03:34.364Z,26.90
2019-03-23T00:06:31.138Z,26.90
2019-03-23T00:09:28.019Z,26.90
2019-03-23T00:12:24.257Z,26.90
2019-03-23T00:15:20.662Z,26.80
2019-03-23T00:18:16.587Z,26.80
2019-03-23T00:21:13.129Z,26.80
2019-03-23T00:24:09.426Z,26.80
2019-03-23T00:27:05.876Z,26.80
2019-03-23T00:30:02.296Z,26.80
2019-03-23T00:32:58.913Z,26.80
2019-03-23T00:35:55.265Z,26.70
2019-03-23T00:38:52.198Z,26.70
2019-03-23T00:41:48.615Z,26.70
2019-03-23T00:44:45.458Z,26.70
2019-03-23T00:47:41.981Z,26.60
2019-03-23T00:50:38.427Z,26.60
2019-03-23T00:53:34.861Z,26.60
2019-03-23T00:56:31.438Z,26.60
2019-03-23T00:59:27.854Z,26.60
2019-03-23T01:02:24.949Z,26.60
2019-03-23T01:05:21.684Z,26.60
2019-03-23T01:08:18.167Z,26.60
2019-03-23T01:11:15.070Z,26.60
2019-03-23T01:14:11.746Z,26.60
2019-03-23T01:17:08.167Z,26.60
2019-03-23T01:20:04.766Z,26.60
2019-03-23T01:23:01.610Z,26.60
2019-03-23T01:25:58.227Z,26.60
2019-03-23T01:28:55.085Z,26.60
2019-03-23T01:31:51.624Z,26.70
2019-03-23T01:34:50.232Z,26.70
2019-03-23T01:37:46.997Z,26.60
2019-03-23T01:40:43.243Z,26.70
2019-03-23T01:43:39.692Z,26.70
2019-03-23T01:46:35.751Z,26.70
2019-03-23T01:49:32.441Z,26.70
2019-03-23T01:52:28.873Z,26.80
2019-03-23T01:55:25.701Z,26.80
2019-03-23T01:58:22.251Z,26.80
2019-03-23T02:01:19.557Z,26.80
2019-03-23T02:04:16.251Z,26.90
2019-03-23T02:07:14.290Z,26.90
2019-03-23T02:10:10.633Z,26.90
2019-03-23T02:13:07.433Z,27.00
2019-03-23T02:16:04.786Z,27.00
2019-03-23T02:19:01.405Z,27.10
2019-03-23T02:21:58.175Z,27.10
2019-03-23T02:24:54.162Z,27.10
2019-03-23T02:27:50.312Z,27.10
2019-03-23T02:30:46.835Z,27.20
2019-03-23T02:33:43.248Z,27.20
2019-03-23T02:36:39.825Z,27.20
2019-03-23T02:39:36.304Z,27.30
2019-03-23T02:42:32.911Z,27.30
2019-03-23T02:45:30.389Z,27.40
2019-03-23T02:48:26.296Z,27.40
2019-03-23T02:51:22.727Z,27.40
2019-03-23T02:54:19.366Z,27.40
2019-03-23T02:57:16.237Z,27.50
2019-03-23T03:00:13.729Z,27.50
2019-03-23T03:03:10.477Z,27.50
2019-03-23T03:06:06.947Z,27.60
2019-03-23T03:09:03.584Z,27.60
2019-03-23T03:12:00.659Z,27.70
2019-03-23T03:14:59.464Z,27.70
2019-03-23T03:17:56.987Z,27.70
2019-03-23T03:20:54.779Z,27.80
2019-03-23T03:23:51.088Z,27.90
2019-03-23T03:26:48.080Z,27.90
2019-03-23T03:29:46.504Z,28.00
2019-03-23T03:32:42.794Z,28.00
2019-03-23T03:35:39.417Z,28.10
2019-03-23T03:38:35.815Z,28.10
2019-03-23T03:41:32.245Z,28.10
2019-03-23T03:44:28.832Z,28.20
2019-03-23T03:47:25.225Z,28.20
2019-03-23T03:50:23.774Z,28.20
2019-03-23T03:53:20.232Z,28.30
2019-03-23T03:56:16.789Z,28.40
2019-03-23T03:59:13.515Z,28.40
2019-03-23T04:02:10.138Z,28.50
2019-03-23T04:05:06.517Z,28.50
2019-03-23T04:08:10.892Z,28.60
2019-03-23T04:11:01.740Z,28.60
2019-03-23T04:13:58.409Z,28.60
2019-03-23T04:16:54.708Z,28.70
2019-03-23T04:19:51.357Z,28.70
2019-03-23T04:22:47.500Z,28.80
2019-03-23T04:25:43.719Z,28.90
2019-03-23T04:28:41.614Z,28.90
2019-03-23T04:31:38.014Z,28.90
2019-03-23T04:34:35.422Z,29.00
2019-03-23T04:37:32.617Z,29.00
2019-03-23T04:40:29.060Z,29.00
2019-03-23T04:43:25.436Z,29.10
2019-03-23T04:46:22.550Z,29.20
2019-03-23T04:49:18.852Z,29.20
2019-03-23T04:52:33.437Z,29.30
2019-03-23T04:55:31.259Z,29.30
2019-03-23T04:58:27.719Z,29.40
2019-03-23T05:01:24.004Z,29.40
2019-03-23T05:04:20.083Z,29.50
2019-03-23T05:07:16.129Z,29.50
2019-03-23T05:10:12.883Z,29.60
2019-03-23T05:13:09.671Z,29.60
2019-03-23T05:16:08.783Z,29.70
2019-03-23T05:19:13.701Z,29.70
2019-03-23T05:22:11.442Z,29.80
2019-03-23T05:25:11.368Z,29.80
2019-03-23T05:28:09.011Z,29.90
2019-03-23T05:31:07.056Z,29.90
2019-03-23T05:34:02.334Z,30.00
2019-03-23T05:36:58.313Z,30.00
2019-03-23T05:39:55.049Z,30.00
2019-03-23T05:42:51.982Z,30.00
2019-03-23T05:45:48.516Z,30.10
2019-03-23T05:48:44.604Z,30.10
2019-03-23T05:51:41.112Z,30.20
2019-03-23T05:54:37.857Z,30.20
2019-03-23T05:57:34.629Z,30.30
2019-03-23T06:00:30.973Z,30.30
2019-03-23T06:03:32.498Z,30.40
2019-03-23T06:06:29.039Z,30.40
2019-03-23T06:09:31.831Z,30.50
2019-03-23T06:12:29.771Z,30.50
2019-03-23T06:15:26.275Z,30.60
2019-03-23T06:18:23.441Z,30.70
2019-03-23T06:21:20.256Z,30.70
2019-03-23T06:24:16.904Z,30.80
2019-03-23T06:27:14.064Z,30.90
2019-03-23T06:30:15.253Z,30.90
2019-03-23T06:33:12.807Z,31.00
2019-03-23T06:36:09.277Z,31.00
2019-03-23T06:39:06.267Z,31.10
2019-03-23T06:42:02.449Z,31.20
2019-03-23T06:44:58.491Z,31.40
2019-03-23T06:47:54.600Z,31.60
2019-03-23T06:50:51.838Z,31.70
2019-03-23T06:53:48.583Z,31.80
2019-03-23T06:56:48.969Z,31.90
2019-03-23T06:59:51.812Z,31.90
2019-03-23T07:02:48.898Z,32.00
2019-03-23T07:05:46.052Z,32.00
2019-03-23T07:08:48.080Z,32.10
2019-03-23T07:11:44.755Z,32.20
2019-03-23T07:14:41.197Z,32.40
2019-03-23T07:17:37.871Z,32.50
2019-03-23T07:20:34.668Z,32.60
2019-03-23T07:23:33.957Z,32.80
2019-03-23T07:26:31.499Z,33.00
2019-03-23T07:29:38.340Z,33.20
2019-03-23T07:32:43.383Z,33.30
2019-03-23T07:35:53.371Z,33.40
2019-03-23T07:38:49.745Z,33.50
2019-03-23T07:41:46.002Z,33.50
2019-03-23T07:44:45.082Z,33.60
2019-03-23T07:47:46.880Z,33.60
2019-03-23T07:50:43.067Z,33.50
2019-03-23T07:53:44.074Z,33.50
2019-03-23T07:56:38.551Z,33.60
2019-03-23T07:59:34.857Z,33.60
2019-03-23T08:02:33.048Z,33.60
2019-03-23T08:05:29.101Z,33.60
2019-03-23T08:08:25.903Z,33.60
2019-03-23T08:11:22.491Z,33.60
2019-03-23T08:14:18.851Z,33.50
2019-03-23T08:17:15.055Z,33.50
2019-03-23T08:20:11.935Z,33.50
2019-03-23T08:23:11.477Z,33.50
2019-03-23T08:26:05.093Z,33.50
2019-03-23T08:29:03.288Z,33.50
2019-03-23T08:31:58.665Z,33.60
2019-03-23T08:34:55.053Z,33.60
2019-03-23T08:37:51.456Z,33.80
2019-03-23T08:40:48.578Z,33.90
2019-03-23T08:43:45.508Z,34.10
2019-03-23T08:46:47.851Z,34.30
2019-03-23T08:49:44.494Z,34.50
2019-03-23T08:52:42.365Z,34.70
2019-03-23T08:55:38.869Z,34.90
2019-03-23T08:58:33.392Z,35.20
2019-03-23T09:01:30.279Z,35.60
2019-03-23T09:04:27.532Z,35.90
2019-03-23T09:07:25.252Z,36.30
2019-03-23T09:10:21.311Z,36.70
2019-03-23T09:13:17.751Z,37.00
2019-03-23T09:16:23.721Z,37.10
2019-03-23T09:19:23.230Z,37.20
2019-03-23T09:22:32.370Z,37.20
2019-03-23T09:25:31.959Z,37.20
2019-03-23T09:28:59.654Z,37.10
2019-03-23T09:31:56.569Z,36.90
2019-03-23T09:34:53.180Z,36.80
2019-03-23T09:37:54.775Z,36.60
2019-03-23T09:41:07.519Z,36.50
2019-03-23T09:44:32.791Z,36.40
2019-03-23T09:47:27.463Z,36.40
2019-03-23T09:50:24.914Z,36.50
2019-03-23T09:53:38.078Z,36.60
2019-03-23T09:56:32.619Z,36.60
2019-03-23T09:59:30.226Z,36.70
2019-03-23T10:02:51.159Z,36.80
2019-03-23T10:06:10.489Z,37.00
2019-03-23T10:09:32.679Z,37.40
2019-03-23T10:12:26.614Z,37.80
2019-03-23T10:15:49.293Z,38.20
2019-03-23T10:18:46.572Z,38.40
2019-03-23T10:21:43.441Z,38.60
2019-03-23T10:24:55.317Z,38.70
2019-03-23T10:28:06.679Z,38.80
2019-03-23T10:31:04.331Z,38.90
2019-03-23T10:34:03.528Z,38.90
2019-03-23T10:36:59.896Z,38.80
2019-03-23T10:39:56.437Z,38.70
2019-03-23T10:42:52.858Z,38.60
2019-03-23T10:46:19.369Z,38.60
2019-03-23T10:49:22.815Z,38.50
2019-03-23T10:52:28.631Z,38.30
2019-03-23T10:55:30.483Z,38.20
2019-03-23T10:58:27.020Z,38.00
2019-03-23T11:01:24.669Z,37.90
2019-03-23T11:04:22.640Z,37.70
2019-03-23T11:07:21.246Z,37.50
2019-03-23T11:10:19.425Z,37.40
2019-03-23T11:13:40.318Z,37.20
2019-03-23T11:17:04.646Z,37.10
2019-03-23T11:19:48.709Z,36.90
2019-03-23T11:22:47.822Z,36.70
2019-03-23T11:25:45.966Z,36.50
2019-03-23T11:28:45.984Z,36.30
2019-03-23T11:31:44.312Z,36.10
2019-03-23T11:34:42.481Z,35.90
2019-03-23T11:37:40.929Z,35.70
2019-03-23T11:40:36.917Z,35.60
2019-03-23T11:43:33.507Z,35.50
2019-03-23T11:46:32.598Z,35.40
2019-03-23T11:49:33.162Z,35.30
2019-03-23T11:52:27.306Z,35.20
2019-03-23T11:55:23.669Z,35.10
2019-03-23T11:58:21.109Z,35.00
2019-03-23T12:01:17.674Z,34.90
2019-03-23T12:04:14.696Z,34.80
2019-03-23T12:07:11.746Z,34.70
2019-03-23T12:10:08.628Z,34.60
2019-03-23T12:13:08.646Z,34.50
2019-03-23T12:16:09.389Z,34.40
2019-03-23T12:19:05.986Z,34.30
2019-03-23T12:22:02.700Z,34.20
2019-03-23T12:24:59.903Z,34.10
2019-03-23T12:27:56.951Z,34.00
2019-03-23T12:30:55.999Z,33.90
2019-03-23T12:33:53.062Z,33.80
2019-03-23T12:36:50.029Z,33.70
2019-03-23T12:39:47.324Z,33.60
2019-03-23T12:42:47.904Z,33.50
2019-03-23T12:45:45.040Z,33.40
2019-03-23T12:48:42.820Z,33.30
2019-03-23T12:51:40.984Z,33.20
2019-03-23T12:54:37.518Z,33.00
2019-03-23T12:57:40.903Z,33.00
2019-03-23T13:00:37.874Z,32.90
2019-03-23T13:03:35.152Z,32.80
2019-03-23T13:06:33.773Z,32.70
2019-03-23T13:09:31.450Z,32.70
2019-03-23T13:12:28.104Z,32.60
2019-03-23T13:15:24.789Z,32.50
2019-03-23T13:18:27.128Z,32.50
2019-03-23T13:21:19.260Z,32.40
2019-03-23T13:24:15.726Z,32.40
2019-03-23T13:27:26.243Z,32.30
2019-03-23T13:30:23.038Z,32.30
2019-03-23T13:33:21.311Z,32.20
2019-03-23T13:36:18.079Z,32.20
2019-03-23T13:39:15.021Z,32.10
2019-03-23T13:42:11.219Z,32.10
2019-03-23T13:45:07.726Z,32.00
2019-03-23T13:48:03.976Z,32.00
2019-03-23T13:51:00.374Z,31.90
2019-03-23T13:53:56.514Z,31.90
2019-03-23T13:56:52.392Z,31.80
2019-03-23T13:59:48.637Z,31.80
2019-03-23T14:02:44.751Z,31.80
2019-03-23T14:05:41.920Z,31.70
2019-03-23T14:08:38.690Z,31.70
2019-03-23T14:11:36.526Z,31.70
2019-03-23T14:14:33.363Z,31.70
2019-03-23T14:17:29.484Z,31.60
2019-03-23T14:20:25.608Z,31.60
2019-03-23T14:23:21.814Z,31.60
2019-03-23T14:26:18.585Z,31.60
2019-03-23T14:29:14.441Z,31.50
2019-03-23T14:32:12.587Z,31.50
2019-03-23T14:35:09.778Z,31.50
2019-03-23T14:38:05.943Z,31.50
2019-03-23T14:41:02.697Z,31.40
2019-03-23T14:43:59.717Z,31.40
2019-03-23T14:46:56.001Z,31.40
2019-03-23T14:49:54.007Z,31.30
2019-03-23T14:52:50.669Z,31.30
2019-03-23T14:55:47.277Z,31.30
2019-03-23T14:58:45.452Z,31.30
2019-03-23T15:01:42.181Z,31.20
2019-03-23T15:04:38.300Z,31.20
2019-03-23T15:07:35.189Z,31.20
2019-03-23T15:10:32.316Z,31.20
2019-03-23T15:13:29.508Z,31.10
2019-03-23T15:16:27.204Z,31.10
2019-03-23T15:19:30.540Z,31.10
2019-03-23T15:22:31.258Z,31.10
2019-03-23T15:25:33.558Z,31.00
2019-03-23T15:28:31.307Z,31.00
2019-03-23T15:31:28.113Z,31.00
2019-03-23T15:34:24.676Z,31.00
2019-03-23T15:37:21.610Z,31.00
2019-03-23T15:40:20.481Z,31.00
2019-03-23T15:43:16.730Z,30.90
2019-03-23T15:46:13.305Z,30.90
2019-03-23T15:49:10.265Z,30.90
2019-03-23T15:52:06.775Z,30.90
2019-03-23T15:55:03.399Z,30.80
2019-03-23T15:58:00.132Z,30.80
2019-03-23T16:00:57.279Z,30.80
2019-03-23T16:04:00.607Z,30.80
2019-03-23T16:06:58.098Z,30.80
2019-03-23T16:09:54.958Z,30.70
2019-03-23T16:12:52.983Z,30.70
2019-03-23T16:15:50.314Z,30.70
2019-03-23T16:18:47.854Z,30.60
2019-03-23T16:21:46.422Z,30.60
2019-03-23T16:24:44.775Z,30.60
2019-03-23T16:27:43.492Z,30.50
2019-03-23T16:30:40.205Z,30.50
2019-03-23T16:33:38.372Z,30.50
2019-03-23T16:36:34.532Z,30.50
2019-03-23T16:39:30.853Z,30.40
2019-03-23T16:42:29.312Z,30.40
2019-03-23T16:45:26.593Z,30.40
2019-03-23T16:48:24.276Z,30.40
2019-03-23T16:51:21.561Z,30.40
2019-03-23T16:54:18.088Z,30.30
2019-03-23T16:57:16.725Z,30.30
2019-03-23T17:00:15.383Z,30.30
2019-03-23T17:03:14.632Z,30.30
2019-03-23T17:06:12.865Z,30.30
2019-03-23T17:09:10.304Z,30.20
2019-03-23T17:12:07.361Z,30.20
2019-03-23T17:15:03.984Z,30.20
2019-03-23T17:18:01.136Z,30.10
2019-03-23T17:20:59.421Z,30.10
2019-03-23T17:23:58.939Z,30.10
2019-03-23T17:26:55.885Z,30.10
2019-03-23T17:29:52.656Z,30.00
2019-03-23T17:32:50.322Z,30.00
2019-03-23T17:35:49.339Z,30.00
2019-03-23T17:38:45.984Z,30.00
2019-03-23T17:41:42.609Z,30.00
2019-03-23T17:44:39.963Z,29.90
2019-03-23T17:47:37.573Z,29.90
2019-03-23T17:50:35.194Z,29.90
2019-03-23T17:53:32.031Z,29.90
2019-03-23T17:56:29.815Z,29.90
2019-03-23T17:59:27.435Z,29.90
2019-03-23T18:02:30.711Z,29.90
2019-03-23T18:05:28.051Z,29.90
2019-03-23T18:08:25.240Z,29.80
2019-03-23T18:11:22.415Z,29.80
2019-03-23T18:14:19.683Z,29.80
2019-03-23T18:17:16.423Z,29.80
2019-03-23T18:20:16.445Z,29.80
2019-03-23T18:23:13.238Z,29.80
2019-03-23T18:26:09.843Z,29.80
2019-03-23T18:29:06.229Z,29.80
2019-03-23T18:32:02.791Z,29.80
2019-03-23T18:34:59.779Z,29.80
2019-03-23T18:37:57.498Z,29.80
2019-03-23T18:40:54.292Z,29.70
2019-03-23T18:43:50.407Z,29.70
2019-03-23T18:46:46.442Z,29.60
2019-03-23T18:49:42.373Z,29.60
2019-03-23T18:52:38.753Z,29.60
2019-03-23T18:55:34.511Z,29.50
2019-03-23T18:58:30.948Z,29.50
2019-03-23T19:01:27.476Z,29.50
2019-03-23T19:04:23.958Z,29.50
2019-03-23T19:07:20.214Z,29.40
2019-03-23T19:10:16.655Z,29.40
2019-03-23T19:13:13.739Z,29.40
2019-03-23T19:16:10.229Z,29.30
2019-03-23T19:19:06.663Z,29.30
2019-03-23T19:22:02.929Z,29.20
2019-03-23T19:24:59.086Z,29.20
2019-03-23T19:27:55.658Z,29.20
2019-03-23T19:30:51.730Z,29.20
2019-03-23T19:33:48.233Z,29.10
2019-03-23T19:36:45.521Z,29.10
2019-03-23T19:39:41.884Z,29.10
2019-03-23T19:42:38.128Z,29.00
2019-03-23T19:45:35.271Z,29.00
2019-03-23T19:48:31.625Z,29.00
2019-03-23T19:51:28.405Z,28.90
2019-03-23T19:54:24.508Z,28.90
2019-03-23T19:57:21.125Z,28.90
2019-03-23T20:00:17.303Z,28.90
2019-03-23T20:03:14.134Z,28.80
2019-03-23T20:06:10.061Z,28.80
2019-03-23T20:09:08.037Z,28.80
2019-03-23T20:12:05.054Z,28.70
2019-03-23T20:15:01.628Z,28.70
2019-03-23T20:17:58.041Z,28.70
2019-03-23T20:20:54.785Z,28.60
2019-03-23T20:23:51.363Z,28.60
2019-03-23T20:26:47.915Z,28.60
2019-03-23T20:29:44.374Z,28.60
2019-03-23T20:32:41.254Z,28.50
2019-03-23T20:35:37.346Z,28.50
2019-03-23T20:38:34.260Z,28.50
2019-03-23T20:41:30.855Z,28.50
2019-03-23T20:44:27.864Z,28.40
2019-03-23T20:47:25.315Z,28.40
2019-03-23T20:50:22.280Z,28.40
2019-03-23T20:53:19.232Z,28.40
2019-03-23T20:56:15.823Z,28.40
2019-03-23T20:59:12.327Z,28.30
2019-03-23T21:02:08.022Z,28.30
2019-03-23T21:05:04.207Z,28.30
2019-03-23T21:08:00.135Z,28.30
2019-03-23T21:10:57.385Z,28.30
2019-03-23T21:13:53.283Z,28.30
2019-03-23T21:16:49.246Z,28.30
2019-03-23T21:19:45.232Z,28.20
2019-03-23T21:22:41.015Z,28.20
2019-03-23T21:25:37.238Z,28.20
2019-03-23T21:28:33.406Z,28.20
2019-03-23T21:31:29.782Z,28.10
2019-03-23T21:34:25.674Z,28.10
2019-03-23T21:37:21.797Z,28.10
2019-03-23T21:40:18.200Z,28.10
2019-03-23T21:43:14.678Z,28.00
2019-03-23T21:46:11.061Z,28.00
2019-03-23T21:49:07.538Z,28.00
2019-03-23T21:52:04.957Z,27.90
2019-03-23T21:55:01.277Z,27.90
2019-03-23T21:57:57.609Z,27.90
2019-03-23T22:00:54.342Z,27.90
2019-03-23T22:03:50.963Z,27.80
2019-03-23T22:06:47.190Z,27.80
2019-03-23T22:09:44.194Z,27.80
2019-03-23T22:12:41.409Z,27.70
2019-03-23T22:15:38.070Z,27.70
2019-03-23T22:18:34.378Z,27.70
2019-03-23T22:21:30.879Z,27.70
2019-03-23T22:24:27.339Z,27.70
2019-03-23T22:27:25.684Z,27.70
2019-03-23T22:30:22.368Z,27.70
2019-03-23T22:33:18.936Z,27.70
2019-03-23T22:36:14.651Z,27.60
2019-03-23T22:39:12.026Z,27.60
2019-03-23T22:42:08.471Z,27.60
2019-03-23T22:45:04.503Z,27.60
2019-03-23T22:48:00.556Z,27.60
2019-03-23T22:50:57.404Z,27.60
2019-03-23T22:53:55.357Z,27.50
2019-03-23T22:56:51.119Z,27.50
2019-03-23T22:59:47.754Z,27.50
2019-03-23T23:02:44.473Z,27.40
2019-03-23T23:05:40.907Z,27.40
2019-03-23T23:08:37.800Z,27.40
2019-03-23T23:11:35.252Z,27.40
2019-03-23T23:14:31.048Z,27.40
2019-03-23T23:17:27.514Z,27.40
2019-03-23T23:20:24.348Z,27.30
2019-03-23T23:23:20.635Z,27.30
2019-03-23T23:26:17.631Z,27.30
2019-03-23T23:29:14.222Z,27.30
2019-03-23T23:32:10.153Z,27.20
2019-03-23T23:35:06.749Z,27.20
2019-03-23T23:38:02.681Z,27.20
2019-03-23T23:40:58.561Z,27.10
2019-03-23T23:43:55.210Z,27.10
2019-03-23T23:46:52.341Z,27.10
2019-03-23T23:49:48.266Z,27.10
2019-03-23T23:52:44.340Z,27.10
2019-03-23T23:55:40.787Z,27.10
2019-03-23T23:58:38.056Z,27.00
